Time;durP1;ratioP1;P1;durP2;ratioP2;P2;SDS_P1;SDS_P2;PMS_P1;PMS_P2;Temp;Humidity;BMP_temperature;BMP_pressure;BME280_temperature;BME280_humidity;BME280_pressure;Samples;Min_cycle;Max_cycle;Signal;HPM_P1;HPM_P2
2021/06/15 00:01:48;;;;;;;1999.90;999.90;;;;;;;9.87;100.00;95694.75;5131399;27;20673;-60
2021/06/15 00:04:16;;;;;;;1999.90;999.90;;;;;;;9.85;100.00;95694.28;5131405;27;20186;-61
2021/06/15 00:06:43;;;;;;;1999.90;999.90;;;;;;;9.82;100.00;95687.84;5131346;27;20194;-61
2021/06/15 00:09:11;;;;;;;1999.90;999.90;;;;;;;9.83;100.00;95684.19;5131373;27;20194;-61
2021/06/15 00:11:39;;;;;;;1999.90;999.90;;;;;;;9.76;100.00;95683.00;5131027;27;20248;-61
2021/06/15 00:14:07;;;;;;;1999.90;999.90;;;;;;;9.77;100.00;95681.94;5131416;27;20210;-61
2021/06/15 00:16:34;;;;;;;1999.90;999.90;;;;;;;9.73;100.00;95679.16;5131297;27;20190;-61
2021/06/15 00:19:01;;;;;;;1999.90;999.90;;;;;;;9.81;100.00;95686.28;5131147;27;20196;-61
2021/06/15 00:21:28;;;;;;;1999.90;999.90;;;;;;;9.72;100.00;95684.63;5131073;27;20198;-62
2021/06/15 00:23:56;;;;;;;1999.90;999.90;;;;;;;9.77;100.00;95687.13;5131394;27;20194;-61
2021/06/15 00:26:23;;;;;;;1999.90;999.90;;;;;;;9.78;100.00;95681.66;5131333;27;20580;-61
2021/06/15 00:28:53;;;;;;;1999.90;999.90;;;;;;;9.81;100.00;95680.34;5131227;27;20200;-61
2021/06/15 00:31:23;;;;;;;1999.90;999.90;;;;;;;9.76;100.00;95680.44;5130954;27;20226;-61
2021/06/15 00:33:51;;;;;;;1999.90;999.90;;;;;;;9.74;100.00;95685.88;5130979;27;20194;-61
2021/06/15 00:36:18;;;;;;;1999.90;999.90;;;;;;;9.86;100.00;95682.88;5130961;27;20217;-60
2021/06/15 00:38:46;;;;;;;1999.90;999.90;;;;;;;9.85;100.00;95687.28;5130989;27;20201;-61
2021/06/15 00:41:13;;;;;;;1999.90;999.90;;;;;;;9.82;100.00;95692.25;5130938;27;20616;-61
2021/06/15 00:43:41;;;;;;;1999.90;999.90;;;;;;;9.79;100.00;95690.22;5130774;27;20210;-61
2021/06/15 00:46:09;;;;;;;1999.90;999.90;;;;;;;9.78;100.00;95691.28;5130812;27;20194;-62
2021/06/15 00:48:38;;;;;;;1999.90;999.90;;;;;;;9.80;100.00;95689.94;5130865;28;20197;-61
2021/06/15 00:51:07;;;;;;;1999.90;999.90;;;;;;;9.81;100.00;95690.72;5130806;28;20233;-61
2021/06/15 00:53:36;;;;;;;1999.90;999.90;;;;;;;9.77;100.00;95689.72;5131773;27;20198;-61
2021/06/15 00:56:04;;;;;;;1999.90;999.90;;;;;;;9.57;100.00;95695.22;5135013;27;20190;-61
2021/06/15 00:58:31;;;;;;;1999.90;999.90;;;;;;;9.47;100.00;95702.09;5135271;27;20717;-61
2021/06/15 01:00:59;;;;;;;1999.90;999.90;;;;;;;9.57;100.00;95698.56;5134964;27;20296;-61
2021/06/15 01:03:30;;;;;;;1999.90;999.90;;;;;;;9.65;100.00;95697.19;5134930;27;20388;-61
2021/06/15 01:06:01;;;;;;;1999.90;999.90;;;;;;;9.65;100.00;95697.97;5135386;27;20286;-61
2021/06/15 01:08:45;;;;;;;1999.90;999.90;;;;;;;9.74;100.00;95692.91;5135333;27;20203;-61
2021/06/15 01:11:26;;;;;;;1999.90;999.90;;;;;;;9.72;100.00;95692.41;5134767;27;20241;-61
2021/06/15 01:14:03;;;;;;;1999.90;999.90;;;;;;;9.80;100.00;95687.34;5134879;27;20226;-62
2021/06/15 01:16:36;;;;;;;1999.90;999.90;;;;;;;9.86;100.00;95695.84;5135022;27;20280;-61
2021/06/15 01:19:18;;;;;;;1999.90;999.90;;;;;;;9.88;100.00;95693.72;5134901;27;20205;-61
2021/06/15 01:21:57;;;;;;;1999.90;999.90;;;;;;;10.02;100.00;95691.94;5134689;27;20194;-61
2021/06/15 01:24:33;;;;;;;1999.90;999.90;;;;;;;10.07;100.00;95686.66;5134669;27;20198;-61
2021/06/15 01:27:25;;;;;;;1999.90;999.90;;;;;;;9.89;100.00;95692.66;5134687;27;20196;-58
2021/06/15 01:29:57;;;;;;;1999.90;999.90;;;;;;;9.74;100.00;95679.94;5130534;27;20708;-61
2021/06/15 01:32:28;;;;;;;1999.90;999.90;;;;;;;9.72;100.00;95676.81;5134155;27;20222;-62
2021/06/15 01:34:57;;;;;;;1999.90;999.90;;;;;;;9.61;100.00;95671.03;5134352;27;20248;-61
2021/06/15 01:37:28;;;;;;;1999.90;999.90;;;;;;;9.55;100.00;95676.56;5134508;27;20191;-61
2021/06/15 01:39:59;;;;;;;1999.90;999.90;;;;;;;9.55;100.00;95676.56;5134561;27;20269;-61
2021/06/15 01:42:34;;;;;;;1999.90;999.90;;;;;;;9.68;100.00;95668.84;5134445;27;20194;-61
2021/06/15 01:45:08;;;;;;;1999.90;999.90;;;;;;;9.73;100.00;95668.00;5134147;27;20194;-61
2021/06/15 01:47:40;;;;;;;1999.90;999.90;;;;;;;9.68;100.00;95670.66;5134096;27;20232;-61
2021/06/15 01:50:21;;;;;;;1999.90;999.90;;;;;;;9.61;100.00;95667.69;5134042;27;20191;-62
2021/06/15 01:52:53;;;;;;;1999.90;999.90;;;;;;;9.45;100.00;95656.75;5115759;27;20198;-61
2021/06/15 01:55:25;;;;;;;1999.90;999.90;;;;;;;9.55;100.00;95650.63;5133903;27;20272;-62
2021/06/15 01:57:54;;;;;;;1999.90;999.90;;;;;;;9.26;100.00;95653.38;5134479;27;20274;-61
2021/06/15 02:00:26;;;;;;;1999.90;999.90;;;;;;;9.25;100.00;95657.03;5133835;27;20215;-60
2021/06/15 02:02:54;;;;;;;1999.90;999.90;;;;;;;9.14;100.00;95655.63;5133718;27;20194;-61
2021/06/15 02:05:28;;;;;;;1999.90;999.90;;;;;;;9.09;100.00;95664.22;5133353;27;20201;-62
2021/06/15 02:07:57;;;;;;;1999.90;999.90;;;;;;;9.08;100.00;95662.69;5133767;27;20194;-61
2021/06/15 02:10:25;;;;;;;1999.90;999.90;;;;;;;9.12;100.00;95655.88;5133479;27;20226;-61
2021/06/15 02:12:55;;;;;;;1999.90;999.90;;;;;;;9.14;100.00;95664.16;5133764;27;20194;-61
2021/06/15 02:15:28;;;;;;;1999.90;999.90;;;;;;;9.16;100.00;95662.06;5133449;27;20197;-61
2021/06/15 02:17:58;;;;;;;1999.90;999.90;;;;;;;9.21;100.00;95667.19;5133543;27;20190;-61
2021/06/15 02:20:30;;;;;;;1999.90;999.90;;;;;;;9.19;100.00;95674.47;5133142;27;20303;-62
2021/06/15 02:23:01;;;;;;;1999.90;999.90;;;;;;;9.21;100.00;95667.19;5133698;27;20198;-62
2021/06/15 02:25:31;;;;;;;1999.90;999.90;;;;;;;9.16;100.00;95677.63;5133340;27;20191;-61
2021/06/15 02:27:59;;;;;;;1999.90;999.90;;;;;;;9.03;100.00;95671.28;5133532;27;20285;-61
2021/06/15 02:30:28;;;;;;;1999.90;999.90;;;;;;;9.12;100.00;95671.44;5133104;27;20199;-60
2021/06/15 02:33:01;;;;;;;1999.90;999.90;;;;;;;9.07;100.00;95674.09;5133182;27;20197;-60
2021/06/15 02:35:29;;;;;;;1999.90;999.90;;;;;;;9.01;100.00;95672.63;5133157;27;20195;-61
2021/06/15 02:38:05;;;;;;;1999.90;999.90;;;;;;;9.02;100.00;95676.75;5133125;27;20193;-62
2021/06/15 02:40:34;;;;;;;1999.90;999.90;;;;;;;8.99;100.00;95670.31;5133342;27;20190;-61
2021/06/15 02:43:01;;;;;;;1999.90;999.90;;;;;;;9.07;100.00;95672.28;5133165;27;20201;-62
2021/06/15 02:45:33;;;;;;;1999.90;999.90;;;;;;;8.96;100.00;95670.09;5132823;27;20197;-60
2021/06/15 02:48:03;;;;;;;1999.90;999.90;;;;;;;8.91;100.00;95672.75;5132942;27;20205;-61
2021/06/15 02:50:32;;;;;;;1999.90;999.90;;;;;;;8.83;100.00;95674.13;5132673;27;20194;-61
2021/06/15 02:53:05;;;;;;;1999.90;999.90;;;;;;;8.96;100.00;95675.28;5132893;27;20194;-62
2021/06/15 02:55:34;;;;;;;1999.90;999.90;;;;;;;8.99;100.00;95674.72;5132875;27;20579;-61
2021/06/15 02:58:02;;;;;;;1999.90;999.90;;;;;;;9.00;100.00;95673.69;5132827;27;20286;-62
2021/06/15 03:00:31;;;;;;;1999.90;999.90;;;;;;;8.97;100.00;95674.22;5132479;27;20693;-61
2021/06/15 03:03:02;;;;;;;1999.90;999.90;;;;;;;8.91;100.00;95673.53;5132764;27;20194;-61
2021/06/15 03:05:29;;;;;;;1999.90;999.90;;;;;;;9.02;100.00;95684.53;5132901;27;20636;-62
2021/06/15 03:07:56;;;;;;;1999.90;999.90;;;;;;;9.05;100.00;95686.59;5132517;27;20665;-62
2021/06/15 03:10:26;;;;;;;1999.90;999.90;;;;;;;9.01;100.00;95698.56;5132673;27;20237;-61
2021/06/15 03:12:58;;;;;;;1999.90;999.90;;;;;;;9.05;100.00;95700.31;5132647;27;20223;-61
2021/06/15 03:15:36;;;;;;;1999.90;999.90;;;;;;;9.07;100.00;95703.38;5132307;27;20688;-62
2021/06/15 03:18:08;;;;;;;1999.90;999.90;;;;;;;9.10;100.00;95709.06;5132010;27;20193;-60
2021/06/15 03:20:36;;;;;;;1999.90;999.90;;;;;;;9.08;100.00;95719.72;5132231;27;20607;-60
2021/06/15 03:23:10;;;;;;;1999.90;999.90;;;;;;;9.16;100.00;95724.31;5132269;27;20202;-60
2021/06/15 03:25:38;;;;;;;1999.90;999.90;;;;;;;9.14;100.00;95733.38;5132587;27;20190;-61
2021/06/15 03:28:11;;;;;;;1999.90;999.90;;;;;;;9.07;100.00;95728.53;5132646;27;20277;-61
2021/06/15 03:30:42;;;;;;;1999.90;999.90;;;;;;;9.07;100.00;95737.09;5132103;27;20191;-61
2021/06/15 03:33:14;;;;;;;1999.90;999.90;;;;;;;9.12;100.00;95727.69;5132034;27;20194;-61
2021/06/15 03:35:42;;;;;;;1999.90;999.90;;;;;;;9.25;100.00;95740.78;5132438;27;20218;-61
2021/06/15 03:38:11;;;;;;;1999.90;999.90;;;;;;;9.33;100.00;95740.16;5132134;27;20190;-62
2021/06/15 03:40:42;;;;;;;1999.90;999.90;;;;;;;9.41;100.00;95741.38;5131787;27;20198;-62
2021/06/15 03:43:10;;;;;;;1999.90;999.90;;;;;;;9.48;100.00;95742.53;5131970;27;20194;-61
2021/06/15 03:45:41;;;;;;;1999.90;999.90;;;;;;;9.51;100.00;95731.59;5131703;27;20639;-61
2021/06/15 03:48:10;;;;;;;1999.90;999.90;;;;;;;9.59;100.00;95730.22;5131705;27;20202;-61
2021/06/15 03:50:39;;;;;;;1999.90;999.90;;;;;;;9.75;100.00;95728.97;5132069;27;20713;-61
2021/06/15 03:53:09;;;;;;;1999.90;999.90;;;;;;;9.69;100.00;95731.91;5131278;27;20230;-61
2021/06/15 03:55:38;;;;;;;1999.90;999.90;;;;;;;9.70;100.00;95742.00;5131768;27;20235;-62
2021/06/15 03:58:08;;;;;;;1999.90;999.90;;;;;;;9.63;100.00;95746.75;5131610;27;20281;-61
2021/06/15 04:00:38;;;;;;;1999.90;999.90;;;;;;;9.79;100.00;95749.91;5131394;27;20287;-61
2021/06/15 04:03:10;;;;;;;1999.90;999.90;;;;;;;9.70;100.00;95754.19;5131528;27;20191;-60
2021/06/15 04:05:40;;;;;;;1999.90;999.90;;;;;;;9.72;100.00;95752.09;5131536;27;20198;-61
2021/06/15 04:08:11;;;;;;;1999.90;999.90;;;;;;;9.75;100.00;95743.75;5131649;27;20187;-61
2021/06/15 04:10:41;;;;;;;1999.90;999.90;;;;;;;9.79;100.00;95749.91;5131311;27;20259;-60
2021/06/15 04:13:09;;;;;;;1999.90;999.90;;;;;;;9.86;100.00;95750.34;5131109;27;20229;-61
2021/06/15 04:15:37;;;;;;;1999.90;999.90;;;;;;;10.03;100.00;95750.59;5131330;27;20198;-60
2021/06/15 04:18:08;;;;;;;1999.90;999.90;;;;;;;10.21;100.00;95752.41;5131294;27;20196;-60
2021/06/15 04:20:39;;;;;;;1999.90;999.90;;;;;;;10.34;100.00;95753.53;5131278;27;20217;-61
2021/06/15 04:23:09;;;;;;;1999.90;999.90;;;;;;;10.34;100.00;95762.09;5131098;27;20223;-61
2021/06/15 04:25:41;;;;;;;1999.90;999.90;;;;;;;10.49;100.00;95753.28;5131213;27;20524;-61
2021/06/15 04:28:09;;;;;;;1999.90;999.90;;;;;;;10.61;100.00;95760.63;5131196;27;20689;-62
2021/06/15 04:30:36;;;;;;;1999.90;999.90;;;;;;;10.85;100.00;95763.81;5131021;27;20191;-62
2021/06/15 04:33:08;;;;;;;1999.90;999.90;;;;;;;11.03;100.00;95767.38;5130951;27;20230;-60
2021/06/15 04:35:42;;;;;;;1999.90;999.90;;;;;;;11.05;100.00;95766.06;5130828;27;20206;-60
2021/06/15 04:38:13;;;;;;;1999.90;999.90;;;;;;;11.04;100.00;95774.13;5130897;27;20192;-61
2021/06/15 04:40:44;;;;;;;1999.90;999.90;;;;;;;11.10;100.00;95773.75;5130916;27;20202;-61
2021/06/15 04:43:31;;;;;;;1999.90;999.90;;;;;;;11.35;100.00;95764.69;5130938;27;20195;-61
2021/06/15 04:46:15;;;;;;;1999.90;999.90;;;;;;;11.66;100.00;95764.81;5130970;27;20198;-61
2021/06/15 04:48:47;;;;;;;1999.90;999.90;;;;;;;11.89;100.00;95763.84;5131045;27;20214;-61
2021/06/15 04:51:21;;;;;;;1999.90;999.90;;;;;;;12.15;100.00;95765.88;5130653;27;20676;-61
2021/06/15 04:53:49;;;;;;;1999.90;999.90;;;;;;;12.31;100.00;95764.44;5130900;28;20194;-61
2021/06/15 04:56:19;;;;;;;1999.90;999.90;;;;;;;12.53;100.00;95769.63;5130749;28;20195;-60
2021/06/15 04:58:48;;;;;;;1999.90;999.90;;;;;;;12.70;98.76;95772.31;5130486;28;20191;-61
2021/06/15 05:01:16;;;;;;;1999.90;999.90;;;;;;;12.88;99.20;95768.75;5130565;28;20602;-61
2021/06/15 05:03:44;;;;;;;1999.90;999.90;;;;;;;13.27;98.97;95772.44;5130690;28;20190;-61
2021/06/15 05:06:12;;;;;;;1999.90;999.90;;;;;;;13.14;99.32;95765.50;5130825;28;20194;-60
2021/06/15 05:08:47;;;;;;;1999.90;999.90;;;;;;;13.13;98.19;95769.94;5130701;28;20212;-60
2021/06/15 05:11:16;;;;;;;1999.90;999.90;;;;;;;13.49;98.48;95777.56;5130695;28;20229;-61
2021/06/15 05:13:45;;;;;;;1999.90;999.90;;;;;;;13.55;95.68;95781.56;5130629;28;20277;-62
2021/06/15 05:16:14;;;;;;;1999.90;999.90;;;;;;;13.30;96.67;95779.66;5130496;28;20202;-61
2021/06/15 05:18:42;;;;;;;1999.90;999.90;;;;;;;13.53;96.32;95778.50;5130530;28;20194;-60
2021/06/15 05:21:13;;;;;;;1999.90;999.90;;;;;;;13.63;96.36;95785.28;5130822;28;20247;-61
2021/06/15 05:23:47;;;;;;;1999.90;999.90;;;;;;;13.82;94.94;95785.00;5130529;28;20205;-61
2021/06/15 05:26:15;;;;;;;1999.90;999.90;;;;;;;13.72;94.96;95784.22;5130675;28;20291;-61
2021/06/15 05:28:42;;;;;;;1999.90;999.90;;;;;;;13.57;94.34;95796.94;5130346;28;20191;-61
2021/06/15 05:31:09;;;;;;;1999.90;999.90;;;;;;;13.58;94.87;95801.84;5130365;28;20190;-60
2021/06/15 05:33:37;;;;;;;1999.90;999.90;;;;;;;13.36;95.31;95800.09;5130196;28;20232;-61
2021/06/15 05:36:04;;;;;;;1999.90;999.90;;;;;;;13.62;96.82;95791.56;5130183;28;20208;-61
2021/06/15 05:38:32;;;;;;;1999.90;999.90;;;;;;;13.83;97.43;95794.38;5130675;27;20195;-61
2021/06/15 05:41:01;;;;;;;1999.90;999.90;;;;;;;14.18;94.28;95795.94;5133482;27;20197;-61
2021/06/15 05:43:28;;;;;;;1999.90;999.90;;;;;;;14.67;94.71;95793.91;5134188;27;20217;-61
2021/06/15 05:45:55;;;;;;;1999.90;999.90;;;;;;;14.82;92.55;95791.53;5133996;27;20193;-61
2021/06/15 05:48:23;;;;;;;1999.90;999.90;;;;;;;14.95;92.04;95790.56;5134004;27;20297;-61
2021/06/15 05:50:50;;;;;;;1999.90;999.90;;;;;;;15.15;90.20;95788.34;5133878;27;20194;-61
2021/06/15 05:53:17;;;;;;;1999.90;999.90;;;;;;;14.89;87.49;95793.69;5134161;27;20225;-61
2021/06/15 05:55:46;;;;;;;1999.90;999.90;;;;;;;14.57;89.64;95784.53;5133885;27;20199;-61
2021/06/15 05:58:15;;;;;;;1999.90;999.90;;;;;;;14.68;89.14;95796.22;5133998;27;20194;-61
2021/06/15 06:00:42;;;;;;;1999.90;999.90;;;;;;;14.88;88.99;95797.38;5133717;27;20218;-61
2021/06/15 06:03:10;;;;;;;1999.90;999.90;;;;;;;14.72;87.05;95785.88;5133693;27;20599;-61
2021/06/15 06:08:24;;;;;;;1999.90;999.90;;;;;;;14.88;87.92;95803.38;5133882;27;20205;-61
2021/06/15 06:10:52;;;;;;;1999.90;999.90;;;;;;;15.03;86.35;95802.88;5133713;27;20237;-62
2021/06/15 06:13:21;;;;;;;1999.90;999.90;;;;;;;15.09;87.59;95793.00;5133524;27;20283;-61
2021/06/15 06:15:48;;;;;;;1999.90;999.90;;;;;;;15.18;86.19;95791.13;5133411;27;20194;-61
2021/06/15 06:18:16;;;;;;;1999.90;999.90;;;;;;;15.12;86.08;95795.00;5133651;27;20202;-61
2021/06/15 06:20:43;;;;;;;1999.90;999.90;;;;;;;15.11;83.95;95796.06;5133301;27;20194;-61
2021/06/15 06:23:10;;;;;;;1999.90;999.90;;;;;;;14.94;85.14;95793.53;5133487;27;20270;-61
2021/06/15 06:25:38;;;;;;;1999.90;999.90;;;;;;;15.20;83.56;95796.78;5133253;27;20194;-61
2021/06/15 06:28:05;;;;;;;1999.90;999.90;;;;;;;15.42;84.66;95791.31;5133265;27;20708;-62
2021/06/15 06:30:36;;;;;;;1999.90;999.90;;;;;;;15.63;85.51;95795.84;5133203;27;20194;-61
2021/06/15 06:33:03;;;;;;;1999.90;999.90;;;;;;;15.68;83.81;95800.91;5133434;27;20226;-61
2021/06/15 06:35:30;;;;;;;1999.90;999.90;;;;;;;15.76;83.20;95802.69;5133345;27;20273;-62
2021/06/15 06:37:58;;;;;;;1999.90;999.90;;;;;;;16.10;83.00;95801.69;5133143;27;20582;-61
2021/06/15 06:40:25;;;;;;;1999.90;999.90;;;;;;;16.39;84.49;95787.75;5133180;27;20194;-61
2021/06/15 06:42:52;;;;;;;1999.90;999.90;;;;;;;16.23;81.15;95796.19;5133179;27;20202;-61
2021/06/15 06:45:20;;;;;;;1999.90;999.90;;;;;;;16.06;83.14;95796.31;5133043;27;20221;-61
2021/06/15 06:47:49;;;;;;;1999.90;999.90;;;;;;;16.20;85.38;95791.59;5133345;27;20247;-61
2021/06/15 06:50:16;;;;;;;1999.90;999.90;;;;;;;16.64;83.01;95790.13;5132648;27;20195;-61
2021/06/15 06:52:43;;;;;;;1999.90;999.90;;;;;;;16.67;79.13;95786.09;5131888;27;20234;-61
2021/06/15 06:55:18;;;;;;;1999.90;999.90;;;;;;;16.55;77.77;95791.28;5132845;27;20700;-61
2021/06/15 06:57:45;;;;;;;1999.90;999.90;;;;;;;16.66;79.65;95792.44;5133316;27;20197;-61
2021/06/15 07:00:14;;;;;;;1999.90;999.90;;;;;;;16.63;78.25;95783.38;5132859;27;20210;-61
2021/06/15 07:02:41;;;;;;;1999.90;999.90;;;;;;;17.09;80.05;95773.59;5132741;27;20664;-62
2021/06/15 07:05:12;;;;;;;1999.90;999.90;;;;;;;17.61;82.32;95769.22;5132470;27;20190;-61
2021/06/15 07:07:39;;;;;;;1999.90;999.90;;;;;;;17.06;74.85;95774.25;5132635;27;20568;-61
2021/06/15 07:10:07;;;;;;;1999.90;999.90;;;;;;;17.12;75.34;95763.22;5132389;27;20254;-62
2021/06/15 07:12:35;;;;;;;1999.90;999.90;;;;;;;17.11;77.61;95772.19;5132129;27;20222;-62
2021/06/15 07:15:02;;;;;;;1999.90;999.90;;;;;;;17.01;76.39;95764.72;5132572;27;20417;-61
2021/06/15 07:17:30;;;;;;;1999.90;999.90;;;;;;;17.19;78.46;95763.41;5132480;27;20195;-62
2021/06/15 07:19:57;;;;;;;1999.90;999.90;;;;;;;17.37;75.65;95776.34;5132489;27;20197;-61
2021/06/15 07:22:26;;;;;;;1999.90;999.90;;;;;;;17.33;75.74;95775.47;5132237;27;20191;-61
2021/06/15 07:24:53;;;;;;;1999.90;999.90;;;;;;;17.18;74.22;95769.00;5132225;27;20580;-61
2021/06/15 07:27:24;;;;;;;1999.90;999.90;;;;;;;17.02;76.21;95768.88;5132024;27;20722;-61
2021/06/15 07:29:51;;;;;;;1999.90;999.90;;;;;;;17.39;75.67;95768.88;5132116;27;20661;-61
2021/06/15 07:32:18;;;;;;;1999.90;999.90;;;;;;;17.61;77.74;95763.22;5132057;27;20358;-61
2021/06/15 07:34:45;;;;;;;1999.90;999.90;;;;;;;18.11;76.56;95769.88;5132010;27;20229;-62
2021/06/15 07:37:14;;;;;;;1999.90;999.90;;;;;;;18.14;76.66;95748.94;5131923;27;20202;-62
2021/06/15 07:39:43;;;;;;;1999.90;999.90;;;;;;;18.13;74.85;95749.28;5131923;27;20195;-60
2021/06/15 07:42:10;;;;;;;1999.90;999.90;;;;;;;18.06;74.55;95747.97;5131872;27;20721;-61
2021/06/15 07:44:38;;;;;;;1999.90;999.90;;;;;;;18.35;75.29;95743.47;5132047;27;20286;-62
2021/06/15 07:47:05;;;;;;;1999.90;999.90;;;;;;;18.61;76.25;95735.91;5131859;27;20190;-61
2021/06/15 07:49:32;;;;;;;1999.90;999.90;;;;;;;19.23;73.66;95731.72;5131714;27;20281;-61
2021/06/15 07:52:00;;;;;;;1999.90;999.90;;;;;;;19.29;71.75;95738.28;5131658;27;20190;-62
2021/06/15 07:54:28;;;;;;;1999.90;999.90;;;;;;;19.39;70.95;95729.84;5131863;27;20273;-62
2021/06/15 07:56:57;;;;;;;1999.90;999.90;;;;;;;19.50;69.87;95736.16;5131680;27;20186;-60
2021/06/15 07:59:24;;;;;;;1999.90;999.90;;;;;;;19.10;68.01;95735.59;5131669;27;20305;-62
2021/06/15 08:01:51;;;;;;;1999.90;999.90;;;;;;;18.53;68.50;95723.63;5131238;27;20194;-61
2021/06/15 08:04:18;;;;;;;1999.90;999.90;;;;;;;18.26;70.36;95725.22;5131258;27;20577;-61
2021/06/15 08:06:46;;;;;;;1999.90;999.90;;;;;;;18.58;72.07;95712.88;5131351;27;20657;-61
2021/06/15 08:09:13;;;;;;;1999.90;999.90;;;;;;;18.48;71.91;95710.72;5131437;27;20704;-62
2021/06/15 08:11:40;;;;;;;1999.90;999.90;;;;;;;18.83;72.65;95705.59;5131432;27;20226;-62
2021/06/15 08:14:09;;;;;;;1999.90;999.90;;;;;;;19.37;71.56;95699.69;5131225;27;20230;-62
2021/06/15 08:16:36;;;;;;;1999.90;999.90;;;;;;;19.75;69.59;95703.16;5131279;27;20191;-61
2021/06/15 08:19:04;;;;;;;1999.90;999.90;;;;;;;19.57;68.10;95702.03;5131375;27;20202;-62
2021/06/15 08:21:31;;;;;;;1999.90;999.90;;;;;;;19.86;69.09;95697.34;5131410;27;20576;-62
2021/06/15 08:23:59;;;;;;;1999.90;999.90;;;;;;;20.00;66.25;95695.72;5131619;27;20214;-61
2021/06/15 08:26:26;;;;;;;1999.90;999.90;;;;;;;19.71;67.73;95704.97;5131399;27;20645;-61
2021/06/15 08:28:54;;;;;;;1999.90;999.90;;;;;;;19.96;64.68;95704.69;5131247;27;20198;-62
2021/06/15 08:31:23;;;;;;;1999.90;999.90;;;;;;;20.35;69.93;95700.94;5131054;27;20190;-61
2021/06/15 08:33:50;;;;;;;1999.90;999.90;;;;;;;20.55;65.94;95689.22;5130900;27;20214;-62
2021/06/15 08:36:17;;;;;;;1999.90;999.90;;;;;;;20.63;61.33;95693.50;5130895;27;20204;-61
2021/06/15 08:38:44;;;;;;;1999.90;999.90;;;;;;;20.54;61.56;95697.47;5130924;27;20194;-61
2021/06/15 08:41:12;;;;;;;1999.90;999.90;;;;;;;20.67;62.87;95688.28;5130873;27;20194;-61
2021/06/15 08:43:39;;;;;;;1999.90;999.90;;;;;;;20.59;62.24;95684.75;5130777;27;20190;-61
2021/06/15 08:46:07;;;;;;;1999.90;999.90;;;;;;;20.59;61.53;95686.63;5130706;27;20190;-62
2021/06/15 08:48:35;;;;;;;1999.90;999.90;;;;;;;20.28;63.39;95684.94;5130785;27;20190;-62
2021/06/15 08:51:02;;;;;;;1999.90;999.90;;;;;;;20.48;64.28;95675.13;5130854;27;20190;-62
2021/06/15 08:53:33;;;;;;;1999.90;999.90;;;;;;;20.51;62.22;95667.28;5130840;28;20225;-61
2021/06/15 08:56:08;;;;;;;1999.90;999.90;;;;;;;20.19;60.49;95673.84;5130955;28;20262;-61
2021/06/15 08:58:46;;;;;;;1999.90;999.90;;;;;;;20.22;63.07;95670.50;5130849;28;20288;-61
2021/06/15 09:01:14;;;;;;;1999.90;999.90;;;;;;;20.43;62.01;95672.78;5130652;28;20844;-62
2021/06/15 09:03:43;;;;;;;1999.90;999.90;;;;;;;20.58;61.09;95675.31;5130725;28;20233;-61
2021/06/15 09:06:10;;;;;;;1999.90;999.90;;;;;;;20.93;60.79;95679.63;5130703;28;20190;-61
2021/06/15 09:08:52;;;;;;;1999.90;999.90;;;;;;;21.13;62.40;95667.84;5130738;28;20198;-62
2021/06/15 09:11:20;;;;;;;1999.90;999.90;;;;;;;21.78;60.91;95663.06;5130469;28;20307;-61
2021/06/15 09:13:48;;;;;;;1999.90;999.90;;;;;;;22.28;59.07;95667.03;5130704;27;20226;-64
2021/06/15 09:16:25;;;;;;;1999.90;999.90;;;;;;;22.33;56.01;95656.09;5134686;27;20205;-61
2021/06/15 09:18:57;;;;;;;1999.90;999.90;;;;;;;21.86;58.50;95661.25;5134782;27;20190;-61
2021/06/15 09:21:42;;;;;;;1999.90;999.90;;;;;;;20.73;60.63;95657.03;5135001;27;20286;-61
2021/06/15 09:24:11;;;;;;;1999.90;999.90;;;;;;;20.84;61.01;95652.69;5134897;27;20201;-61
2021/06/15 09:27:05;;;;;;;1999.90;999.90;;;;;;;20.78;60.20;95651.44;5134782;27;20197;-61
2021/06/15 09:29:41;;;;;;;1999.90;999.90;;;;;;;20.40;61.77;95653.13;5134553;27;20193;-61
2021/06/15 09:32:09;;;;;;;1999.90;999.90;;;;;;;20.34;62.19;95653.75;5134873;27;20267;-62
2021/06/15 09:34:47;;;;;;;1999.90;999.90;;;;;;;20.27;62.28;95643.84;5134442;27;20837;-61
2021/06/15 09:37:15;;;;;;;1999.90;999.90;;;;;;;20.65;61.94;95645.59;5134554;27;20639;-61
2021/06/15 09:39:43;;;;;;;1999.90;999.90;;;;;;;20.54;62.01;95647.31;5134338;27;20661;-60
2021/06/15 09:42:11;;;;;;;1999.90;999.90;;;;;;;20.74;63.67;95640.06;5134210;27;20201;-62
2021/06/15 09:44:39;;;;;;;1999.90;999.90;;;;;;;21.23;61.01;95630.25;5134268;27;21189;-61
2021/06/15 09:47:08;;;;;;;1999.90;999.90;;;;;;;21.82;60.65;95626.03;5134783;27;20297;-61
2021/06/15 09:49:39;;;;;;;1999.90;999.90;;;;;;;21.46;59.40;95628.31;5134152;27;20572;-61
2021/06/15 09:52:14;;;;;;;1999.90;999.90;;;;;;;21.28;57.44;95637.09;5134194;27;20580;-61
2021/06/15 09:54:43;;;;;;;1999.90;999.90;;;;;;;20.95;60.07;95629.84;5134339;27;20306;-61
2021/06/15 09:57:13;;;;;;;1999.90;999.90;;;;;;;20.80;60.33;95634.16;5134248;27;20197;-61
2021/06/15 09:59:59;;;;;;;1999.90;999.90;;;;;;;20.72;59.82;95634.41;5134182;27;20206;-61
2021/06/15 10:02:26;;;;;;;1999.90;999.90;;;;;;;20.91;59.57;95634.31;5133925;27;20205;-61
2021/06/15 10:04:55;;;;;;;1999.90;999.90;;;;;;;20.61;61.92;95637.63;5133970;27;21007;-61
2021/06/15 10:07:27;;;;;;;1999.90;999.90;;;;;;;20.39;62.05;95624.44;5133813;27;20198;-61
2021/06/15 10:09:55;;;;;;;1999.90;999.90;;;;;;;20.66;63.64;95628.66;5133287;27;20275;-62
2021/06/15 10:12:23;;;;;;;1999.90;999.90;;;;;;;20.38;58.20;95642.16;5133803;27;20202;-61
2021/06/15 10:14:52;;;;;;;1999.90;999.90;;;;;;;20.19;59.80;95636.88;5133764;27;20222;-61
2021/06/15 10:17:19;;;;;;;1999.90;999.90;;;;;;;20.26;59.97;95634.38;5133700;27;20277;-61
2021/06/15 10:19:47;;;;;;;1999.90;999.90;;;;;;;20.09;59.46;95640.09;5133473;27;20555;-61
2021/06/15 10:22:16;;;;;;;1999.90;999.90;;;;;;;20.14;58.81;95629.25;5133740;27;20237;-61
2021/06/15 10:24:44;;;;;;;1999.90;999.90;;;;;;;20.46;60.56;95630.59;5133449;27;20553;-62
2021/06/15 10:27:13;;;;;;;1999.90;999.90;;;;;;;20.19;61.36;95621.06;5133405;27;20195;-61
2021/06/15 10:29:42;;;;;;;1999.90;999.90;;;;;;;20.51;60.33;95624.25;5133493;27;20187;-61
2021/06/15 10:32:13;;;;;;;1999.90;999.90;;;;;;;20.58;59.53;95627.00;5133538;27;20281;-61
2021/06/15 10:34:57;;;;;;;1999.90;999.90;;;;;;;20.33;59.93;95620.56;5133292;27;20228;-60
2021/06/15 10:37:49;;;;;;;1999.90;999.90;;;;;;;20.24;60.44;95617.34;5133658;27;20648;-61
2021/06/15 10:40:35;;;;;;;1999.90;999.90;;;;;;;19.69;62.03;95614.88;5119163;27;20912;-62
2021/06/15 10:43:34;;;;;;;1999.90;999.90;;;;;;;19.58;62.32;95613.91;5133511;27;20596;-62
2021/06/15 10:46:07;;;;;;;1999.90;999.90;;;;;;;19.48;63.19;95618.97;5133460;27;20198;-61
2021/06/15 10:48:45;;;;;;;1999.90;999.90;;;;;;;19.56;64.52;95621.41;5133095;27;20201;-62
2021/06/15 10:51:36;;;;;;;1999.90;999.90;;;;;;;19.79;62.68;95616.19;5133337;27;20224;-62
2021/06/15 10:54:33;;;;;;;1999.90;999.90;;;;;;;19.62;62.70;95620.03;5133006;27;20221;-62
2021/06/15 10:57:17;;;;;;;1999.90;999.90;;;;;;;19.22;63.23;95612.41;5132920;27;20198;-62
2021/06/15 10:59:58;;;;;;;1999.90;999.90;;;;;;;19.21;62.42;95599.59;5133095;27;20218;-62
2021/06/15 11:02:28;;;;;;;1999.90;999.90;;;;;;;19.50;61.02;95604.34;5132830;27;20186;-61
2021/06/15 11:04:55;;;;;;;1999.90;999.90;;;;;;;19.52;63.20;95596.84;5133196;27;20283;-62
2021/06/15 11:07:28;;;;;;;1999.90;999.90;;;;;;;19.85;63.47;95598.22;5132757;27;20195;-62
2021/06/15 11:09:56;;;;;;;1999.90;999.90;;;;;;;20.09;60.30;95596.00;5132491;27;20197;-62
2021/06/15 11:12:24;;;;;;;1999.90;999.90;;;;;;;20.36;59.29;95593.47;5132877;27;20194;-61